createdAt,value
2023-03-29T00:01:34.988Z,1.50
2023-03-29T00:04:07.092Z,1.70
2023-03-29T00:06:34.768Z,1.80
2023-03-29T00:09:05.332Z,1.70
2023-03-29T00:11:32.604Z,1.75
2023-03-29T00:13:59.779Z,1.38
2023-03-29T00:16:27.139Z,1.70
2023-03-29T00:18:54.471Z,1.83
2023-03-29T00:21:21.698Z,1.38
2023-03-29T00:23:48.981Z,1.52
2023-03-29T00:26:16.339Z,1.42
2023-03-29T00:28:43.455Z,1.85
2023-03-29T00:31:12.229Z,1.77
2023-03-29T00:33:40.318Z,1.90
2023-03-29T00:36:08.593Z,1.70
2023-03-29T00:38:36.205Z,1.90
2023-03-29T00:41:04.483Z,1.98
2023-03-29T00:43:32.098Z,1.80
2023-03-29T00:45:59.358Z,1.90
2023-03-29T00:48:30.298Z,2.00
2023-03-29T00:51:03.869Z,1.70
2023-03-29T00:53:34.416Z,2.05
2023-03-29T00:56:10.130Z,1.80
2023-03-29T00:58:59.227Z,1.92
2023-03-29T01:01:34.151Z,1.77
2023-03-29T01:04:03.986Z,1.60
2023-03-29T01:06:34.474Z,1.52
2023-03-29T01:09:03.525Z,1.80
2023-03-29T01:11:47.013Z,2.10
2023-03-29T01:14:33.816Z,1.55
2023-03-29T01:17:00.997Z,1.65
2023-03-29T01:19:30.456Z,2.05
2023-03-29T01:22:10.626Z,2.00
2023-03-29T01:24:38.131Z,1.90
2023-03-29T01:27:25.732Z,1.90
2023-03-29T01:29:57.308Z,1.83
2023-03-29T01:32:37.556Z,2.00
2023-03-29T01:35:10.246Z,1.77
2023-03-29T01:37:39.570Z,1.92
2023-03-29T01:40:07.031Z,2.10
2023-03-29T01:42:43.241Z,1.73
2023-03-29T01:45:10.669Z,2.17
2023-03-29T01:47:45.531Z,2.10
2023-03-29T01:50:23.367Z,2.00
2023-03-29T01:53:02.795Z,1.90
2023-03-29T01:55:33.038Z,1.90
2023-03-29T01:58:01.863Z,2.45
2023-03-29T02:00:30.165Z,2.00
2023-03-29T02:03:00.372Z,2.20
2023-03-29T02:05:29.048Z,1.92
2023-03-29T02:07:56.548Z,2.33
2023-03-29T02:10:24.055Z,2.10
2023-03-29T02:12:51.287Z,1.90
2023-03-29T02:15:20.436Z,2.08
2023-03-29T02:17:49.389Z,2.28
2023-03-29T02:20:20.643Z,2.13
2023-03-29T02:22:50.648Z,2.78
2023-03-29T02:25:18.113Z,2.10
2023-03-29T02:27:45.573Z,2.30
2023-03-29T02:30:14.488Z,1.90
2023-03-29T02:32:45.913Z,2.22
2023-03-29T02:35:22.935Z,1.85
2023-03-29T02:37:54.481Z,2.20
2023-03-29T02:40:22.623Z,2.03
2023-03-29T02:42:50.021Z,2.45
2023-03-29T02:45:18.123Z,2.30
2023-03-29T02:47:47.302Z,2.47
2023-03-29T02:50:14.885Z,2.42
2023-03-29T02:52:44.881Z,2.30
2023-03-29T02:55:15.069Z,2.03
2023-03-29T02:57:43.869Z,2.22
2023-03-29T03:00:12.144Z,2.30
2023-03-29T03:02:39.551Z,3.00
2023-03-29T03:05:07.087Z,2.13
2023-03-29T03:07:34.305Z,2.10
2023-03-29T03:10:01.884Z,2.40
2023-03-29T03:12:29.066Z,2.30
2023-03-29T03:14:56.221Z,2.33
2023-03-29T03:17:23.449Z,2.35
2023-03-29T03:19:50.827Z,2.15
2023-03-29T03:22:18.385Z,2.30
2023-03-29T03:24:46.217Z,2.53
2023-03-29T03:27:13.668Z,2.50
2023-03-29T03:29:41.499Z,2.33
2023-03-29T03:32:08.896Z,1.90
2023-03-29T03:34:36.236Z,2.50
2023-03-29T03:37:03.380Z,2.40
2023-03-29T03:39:30.566Z,2.25
2023-03-29T03:41:57.808Z,2.55
2023-03-29T03:44:25.014Z,2.35
2023-03-29T03:46:52.146Z,2.17
2023-03-29T03:49:19.332Z,2.47
2023-03-29T03:51:47.069Z,2.58
2023-03-29T03:54:16.341Z,2.47
2023-03-29T03:56:43.657Z,2.85
2023-03-29T03:59:11.023Z,2.53
2023-03-29T04:01:43.406Z,2.53
2023-03-29T04:04:11.304Z,2.65
2023-03-29T04:06:41.180Z,2.38
2023-03-29T04:09:11.524Z,3.08
2023-03-29T04:11:38.757Z,2.38
2023-03-29T04:14:05.956Z,2.75
2023-03-29T04:16:33.163Z,2.63
2023-03-29T04:19:00.775Z,2.53
2023-03-29T04:21:27.997Z,2.30
2023-03-29T04:23:55.307Z,2.17
2023-03-29T04:26:22.905Z,2.20
2023-03-29T04:28:50.125Z,2.40
2023-03-29T04:31:17.343Z,2.50
2023-03-29T04:33:46.781Z,2.28
2023-03-29T04:36:15.865Z,2.55
2023-03-29T04:38:47.349Z,2.50
2023-03-29T04:41:15.492Z,2.72
2023-03-29T04:43:46.413Z,2.15
2023-03-29T04:46:17.090Z,2.50
2023-03-29T04:48:44.372Z,2.40
2023-03-29T04:51:11.651Z,2.42
2023-03-29T04:53:38.895Z,2.30
2023-03-29T04:56:06.627Z,2.60
2023-03-29T04:58:33.841Z,2.00
2023-03-29T05:01:01.220Z,3.10
2023-03-29T05:03:28.643Z,2.45
2023-03-29T05:05:55.996Z,2.85
2023-03-29T05:08:23.206Z,2.60
2023-03-29T05:10:50.791Z,2.63
2023-03-29T05:13:17.970Z,2.30
2023-03-29T05:15:45.274Z,2.50
2023-03-29T05:18:12.528Z,2.33
2023-03-29T05:20:40.517Z,2.67
2023-03-29T05:23:07.642Z,2.88
2023-03-29T05:25:35.001Z,2.22
2023-03-29T05:28:02.384Z,2.90
2023-03-29T05:30:29.680Z,2.65
2023-03-29T05:32:56.922Z,2.70
2023-03-29T05:35:26.111Z,2.80
2023-03-29T05:37:53.848Z,2.85
2023-03-29T05:40:21.017Z,2.75
2023-03-29T05:42:48.250Z,2.50
2023-03-29T05:45:15.485Z,2.53
2023-03-29T05:47:42.869Z,2.30
2023-03-29T05:50:13.761Z,2.53
2023-03-29T05:52:41.147Z,2.92
2023-03-29T05:55:08.836Z,2.80
2023-03-29T05:57:37.624Z,2.78
2023-03-29T06:00:15.716Z,2.63
2023-03-29T06:02:43.839Z,2.70
2023-03-29T06:05:11.118Z,2.80
2023-03-29T06:07:38.394Z,2.65
2023-03-29T06:10:06.269Z,2.72
2023-03-29T06:12:33.460Z,2.85
2023-03-29T06:15:04.972Z,2.97
2023-03-29T06:17:33.824Z,3.00
2023-03-29T06:20:01.530Z,3.10
2023-03-29T06:22:28.709Z,2.90
2023-03-29T06:24:55.854Z,2.90
2023-03-29T06:27:23.557Z,3.08
2023-03-29T06:29:50.703Z,3.17
2023-03-29T06:32:17.825Z,3.40
2023-03-29T06:34:45.029Z,3.13
2023-03-29T06:37:12.908Z,3.40
2023-03-29T06:39:41.024Z,3.17
2023-03-29T06:42:19.962Z,3.05
2023-03-29T06:44:49.463Z,3.30
2023-03-29T06:47:17.531Z,3.53
2023-03-29T06:49:44.725Z,3.80
2023-03-29T06:52:12.193Z,4.30
2023-03-29T06:54:39.428Z,3.45
2023-03-29T06:57:07.818Z,3.75
2023-03-29T06:59:35.660Z,3.40
2023-03-29T07:02:02.962Z,3.40
2023-03-29T07:04:32.243Z,3.60
2023-03-29T07:07:02.543Z,3.90
2023-03-29T07:09:30.357Z,3.47
2023-03-29T07:11:58.172Z,3.90
2023-03-29T07:14:30.798Z,3.90
2023-03-29T07:17:01.501Z,3.85
2023-03-29T07:19:30.205Z,3.75
2023-03-29T07:21:57.942Z,3.70
2023-03-29T07:24:25.180Z,3.50
2023-03-29T07:27:03.190Z,3.80
2023-03-29T07:29:31.976Z,3.53
2023-03-29T07:31:59.163Z,3.85
2023-03-29T07:34:27.147Z,3.50
2023-03-29T07:36:54.678Z,4.10
2023-03-29T07:39:22.410Z,3.70
2023-03-29T07:41:49.603Z,3.35
2023-03-29T07:44:18.371Z,3.40
2023-03-29T07:46:45.602Z,3.47
2023-03-29T07:49:12.852Z,3.55
2023-03-29T07:51:40.019Z,3.50
2023-03-29T07:54:07.819Z,3.60
2023-03-29T07:56:34.998Z,4.03
2023-03-29T07:59:02.173Z,3.80
2023-03-29T08:01:29.474Z,3.65
2023-03-29T08:03:56.903Z,4.07
2023-03-29T08:06:26.620Z,3.90
2023-03-29T08:08:54.119Z,4.45
2023-03-29T08:11:21.363Z,4.13
2023-03-29T08:13:48.554Z,3.78
2023-03-29T08:16:15.744Z,4.60
2023-03-29T08:18:42.879Z,4.13
2023-03-29T08:21:10.410Z,4.32
2023-03-29T08:23:37.604Z,4.20
2023-03-29T08:26:04.871Z,4.38
2023-03-29T08:28:32.286Z,4.43
2023-03-29T08:31:00.068Z,4.43
2023-03-29T08:33:27.742Z,4.65
2023-03-29T08:35:54.943Z,4.60
2023-03-29T08:38:22.593Z,4.30
2023-03-29T08:40:50.193Z,4.70
2023-03-29T08:43:27.288Z,4.97
2023-03-29T08:46:23.846Z,5.40
2023-03-29T08:48:56.549Z,4.60
2023-03-29T08:51:30.550Z,5.00
2023-03-29T08:54:00.644Z,5.20
2023-03-29T08:56:31.505Z,4.97
2023-03-29T08:59:01.324Z,5.32
2023-03-29T09:01:31.733Z,5.03
2023-03-29T09:04:08.790Z,5.80
2023-03-29T09:06:36.570Z,5.20
2023-03-29T09:09:03.821Z,5.45
2023-03-29T09:11:50.019Z,5.72
2023-03-29T09:14:25.872Z,5.00
2023-03-29T09:17:02.143Z,5.07
2023-03-29T09:19:38.332Z,5.25
2023-03-29T09:22:19.696Z,5.25
2023-03-29T09:24:56.316Z,5.57
2023-03-29T09:27:50.400Z,5.27
2023-03-29T09:30:27.089Z,5.40
2023-03-29T09:32:59.952Z,5.22
2023-03-29T09:35:29.959Z,5.47
2023-03-29T09:37:57.687Z,6.05
2023-03-29T09:40:39.480Z,5.77
2023-03-29T09:43:09.996Z,6.13
2023-03-29T09:45:38.892Z,6.43
2023-03-29T09:48:10.817Z,5.55
2023-03-29T09:50:39.237Z,6.15
2023-03-29T09:53:06.452Z,5.80
2023-03-29T09:55:37.125Z,6.57
2023-03-29T09:58:18.113Z,6.30
2023-03-29T10:00:45.892Z,6.45
2023-03-29T10:03:24.624Z,6.35
2023-03-29T10:05:53.338Z,6.73
2023-03-29T10:08:27.239Z,6.25
2023-03-29T10:10:54.846Z,6.13
2023-03-29T10:13:30.992Z,6.65
2023-03-29T10:16:03.533Z,6.57
2023-03-29T10:18:34.504Z,6.40
2023-03-29T10:21:03.760Z,6.78
2023-03-29T10:23:32.839Z,6.72
2023-03-29T10:26:00.162Z,6.70
2023-03-29T10:28:27.862Z,7.03
2023-03-29T10:30:56.356Z,7.37
2023-03-29T10:33:24.673Z,7.32
2023-03-29T10:35:52.189Z,7.00
2023-03-29T10:38:20.912Z,6.85
2023-03-29T10:40:49.434Z,6.50
2023-03-29T10:43:22.933Z,6.90
2023-03-29T10:45:51.324Z,7.13
2023-03-29T10:48:19.531Z,7.00
2023-03-29T10:50:52.974Z,6.78
2023-03-29T10:53:28.632Z,7.82
2023-03-29T10:56:05.068Z,7.60
2023-03-29T10:58:32.554Z,6.72
2023-03-29T11:00:59.950Z,7.28
2023-03-29T11:03:40.637Z,7.38
2023-03-29T11:06:26.098Z,7.38
2023-03-29T11:09:01.355Z,7.87
2023-03-29T11:11:37.673Z,7.70
2023-03-29T11:14:18.003Z,8.40
2023-03-29T11:16:45.460Z,8.25
2023-03-29T11:19:33.236Z,8.60
2023-03-29T11:22:17.672Z,7.67
2023-03-29T11:24:51.082Z,8.07
2023-03-29T11:27:42.027Z,8.10
2023-03-29T11:30:09.265Z,9.00
2023-03-29T11:32:46.019Z,9.07
2023-03-29T11:35:32.140Z,8.83
2023-03-29T11:38:03.295Z,10.05
2023-03-29T11:40:49.549Z,10.50
2023-03-29T11:43:25.910Z,10.05
2023-03-29T11:45:55.968Z,9.77
2023-03-29T11:48:27.879Z,12.83
2023-03-29T11:51:11.479Z,11.00
2023-03-29T11:53:57.596Z,9.25
2023-03-29T11:56:36.988Z,8.63
2023-03-29T11:59:11.475Z,9.35
2023-03-29T12:01:42.544Z,11.03
2023-03-29T12:04:17.794Z,11.07
2023-03-29T12:06:49.282Z,10.70
2023-03-29T12:09:16.894Z,10.60
2023-03-29T12:11:51.932Z,11.00
2023-03-29T12:14:23.420Z,11.27
2023-03-29T12:17:03.186Z,11.05
2023-03-29T12:19:46.112Z,10.75
2023-03-29T12:22:13.290Z,10.57
2023-03-29T12:24:42.888Z,10.48
2023-03-29T12:27:19.983Z,10.63
2023-03-29T12:30:06.463Z,10.15
2023-03-29T12:32:33.761Z,11.13
2023-03-29T12:35:01.360Z,10.35
2023-03-29T12:37:35.956Z,11.57
2023-03-29T12:40:22.292Z,10.50
2023-03-29T12:43:04.158Z,10.73
2023-03-29T12:45:37.739Z,10.35
2023-03-29T12:48:05.084Z,10.98
2023-03-29T12:50:34.610Z,10.32
2023-03-29T12:53:28.096Z,10.43
2023-03-29T12:56:08.558Z,11.27
2023-03-29T12:58:51.093Z,10.85
2023-03-29T13:01:27.514Z,10.60
2023-03-29T13:04:13.714Z,10.60
2023-03-29T13:06:47.085Z,10.50
2023-03-29T13:09:22.032Z,10.18
2023-03-29T13:11:53.314Z,9.98
2023-03-29T13:14:21.998Z,9.75
2023-03-29T13:16:49.430Z,9.88
2023-03-29T13:19:23.914Z,9.87
2023-03-29T13:22:06.579Z,10.45
2023-03-29T13:24:56.788Z,10.50
2023-03-29T13:27:43.129Z,10.88
2023-03-29T13:30:29.440Z,10.90
2023-03-29T13:33:06.520Z,11.50
2023-03-29T13:35:52.428Z,11.15
2023-03-29T13:38:22.007Z,11.52
2023-03-29T13:40:52.877Z,10.98
2023-03-29T13:43:20.916Z,10.23
2023-03-29T13:45:57.278Z,10.40
2023-03-29T13:48:33.698Z,10.20
2023-03-29T13:51:36.756Z,10.68
2023-03-29T13:54:08.195Z,10.48
2023-03-29T13:56:39.556Z,10.93
2023-03-29T13:59:17.713Z,11.30
2023-03-29T14:01:50.437Z,10.15
2023-03-29T14:04:28.526Z,10.45
2023-03-29T14:06:56.911Z,10.50
2023-03-29T14:09:30.156Z,10.45
2023-03-29T14:11:57.661Z,10.87
2023-03-29T14:14:26.922Z,10.70
2023-03-29T14:16:55.925Z,11.02
2023-03-29T14:19:31.025Z,10.55
2023-03-29T14:21:59.028Z,10.40
2023-03-29T14:24:27.184Z,10.50
2023-03-29T14:26:54.846Z,10.43
2023-03-29T14:29:24.359Z,10.55
2023-03-29T14:31:52.842Z,9.82
2023-03-29T14:34:20.251Z,9.05
2023-03-29T14:36:49.081Z,8.00
2023-03-29T14:39:21.396Z,8.38
2023-03-29T14:41:53.208Z,8.05
2023-03-29T14:44:25.934Z,8.23
2023-03-29T14:46:53.924Z,7.70
2023-03-29T14:49:22.888Z,7.77
2023-03-29T14:51:50.423Z,7.30
2023-03-29T14:54:20.804Z,7.38
2023-03-29T14:56:48.864Z,7.13
2023-03-29T14:59:29.910Z,7.10
2023-03-29T15:01:57.343Z,6.70
2023-03-29T15:04:24.577Z,7.10
2023-03-29T15:06:52.736Z,6.80
2023-03-29T15:09:23.617Z,6.93
2023-03-29T15:11:51.913Z,6.53
2023-03-29T15:14:20.159Z,7.13
2023-03-29T15:16:47.733Z,6.90
2023-03-29T15:19:17.152Z,6.82
2023-03-29T15:21:45.214Z,5.97
2023-03-29T15:24:21.297Z,5.70
2023-03-29T15:26:58.537Z,5.80
2023-03-29T15:29:34.007Z,6.63
2023-03-29T15:32:02.244Z,6.50
2023-03-29T15:34:30.435Z,6.38
2023-03-29T15:37:00.507Z,7.10
2023-03-29T15:39:28.752Z,6.70
2023-03-29T15:41:56.882Z,7.53
2023-03-29T15:44:27.841Z,6.80
2023-03-29T15:46:55.441Z,6.30
2023-03-29T15:49:22.826Z,5.30
2023-03-29T15:51:50.329Z,5.43
2023-03-29T15:54:17.548Z,5.45
2023-03-29T15:56:50.126Z,5.40
2023-03-29T15:59:18.087Z,5.15
2023-03-29T16:01:46.921Z,4.97
2023-03-29T16:04:16.011Z,4.80
2023-03-29T16:06:43.927Z,4.70
2023-03-29T16:09:11.983Z,6.32
2023-03-29T16:11:40.411Z,6.20
2023-03-29T16:14:11.734Z,5.82
2023-03-29T16:16:38.888Z,5.83
2023-03-29T16:19:06.526Z,5.20
2023-03-29T16:21:34.024Z,4.25
2023-03-29T16:24:01.656Z,4.50
2023-03-29T16:26:30.284Z,4.25
2023-03-29T16:28:57.420Z,4.03
2023-03-29T16:31:26.892Z,4.47
2023-03-29T16:33:54.154Z,4.15
2023-03-29T16:36:21.414Z,4.57
2023-03-29T16:38:48.599Z,4.25
2023-03-29T16:41:16.537Z,4.53
2023-03-29T16:43:44.070Z,5.55
2023-03-29T16:46:11.935Z,5.35
2023-03-29T16:48:39.403Z,4.57
2023-03-29T16:51:07.524Z,4.90
2023-03-29T16:53:35.619Z,5.40
2023-03-29T16:56:03.413Z,4.35
2023-03-29T16:58:30.908Z,4.65
2023-03-29T17:00:58.384Z,4.43
2023-03-29T17:03:25.738Z,4.47
2023-03-29T17:05:54.559Z,4.47
2023-03-29T17:08:22.292Z,4.10
2023-03-29T17:10:53.516Z,4.43
2023-03-29T17:13:21.271Z,4.40
2023-03-29T17:15:52.100Z,4.25
2023-03-29T17:18:19.925Z,4.30
2023-03-29T17:20:47.335Z,4.30
2023-03-29T17:23:16.834Z,3.92
2023-03-29T17:25:46.088Z,3.90
2023-03-29T17:28:13.326Z,3.85
2023-03-29T17:30:40.834Z,3.60
2023-03-29T17:33:08.195Z,3.55
2023-03-29T17:35:35.723Z,3.72
2023-03-29T17:38:03.011Z,3.80
2023-03-29T17:40:30.350Z,3.92
2023-03-29T17:42:57.489Z,3.77
2023-03-29T17:45:24.708Z,3.70
2023-03-29T17:47:51.985Z,4.10
2023-03-29T17:50:19.402Z,3.83
2023-03-29T17:52:46.621Z,4.32
2023-03-29T17:55:13.848Z,3.90
2023-03-29T17:57:41.773Z,3.80
2023-03-29T18:00:10.750Z,4.10
2023-03-29T18:02:38.197Z,4.28
2023-03-29T18:05:05.901Z,5.05
2023-03-29T18:07:33.130Z,4.67
2023-03-29T18:10:00.366Z,4.57
2023-03-29T18:12:27.893Z,6.97
2023-03-29T18:14:56.878Z,10.48
2023-03-29T18:17:24.799Z,12.02
2023-03-29T18:19:52.115Z,10.43
2023-03-29T18:22:19.789Z,8.93
2023-03-29T18:24:48.199Z,7.80
2023-03-29T18:27:16.007Z,6.40
2023-03-29T18:29:44.612Z,5.63
2023-03-29T18:32:11.934Z,4.93
2023-03-29T18:34:39.446Z,5.20
2023-03-29T18:37:07.437Z,4.88
2023-03-29T18:39:35.901Z,5.05
2023-03-29T18:42:03.178Z,4.82
2023-03-29T18:44:30.454Z,4.50
2023-03-29T18:46:57.616Z,4.45
2023-03-29T18:49:25.801Z,4.50
2023-03-29T18:51:55.226Z,4.65
2023-03-29T18:54:22.384Z,4.82
2023-03-29T18:56:49.609Z,4.87
2023-03-29T18:59:17.194Z,5.50
2023-03-29T19:01:45.201Z,5.28
2023-03-29T19:04:13.397Z,4.78
2023-03-29T19:06:42.521Z,4.78
2023-03-29T19:09:12.659Z,4.90
2023-03-29T19:11:39.894Z,5.25
2023-03-29T19:14:09.176Z,5.55
2023-03-29T19:16:36.806Z,5.10
2023-03-29T19:19:05.808Z,5.10
2023-03-29T19:21:33.418Z,5.27
2023-03-29T19:24:03.888Z,5.00
2023-03-29T19:26:33.294Z,4.85
2023-03-29T19:29:01.139Z,4.82
2023-03-29T19:31:28.434Z,5.18
2023-03-29T19:33:55.896Z,5.20
2023-03-29T19:36:23.132Z,5.22
2023-03-29T19:38:50.498Z,4.85
2023-03-29T19:41:17.786Z,5.53
2023-03-29T19:43:45.029Z,5.10
2023-03-29T19:46:13.515Z,4.93
2023-03-29T19:48:41.025Z,4.70
2023-03-29T19:51:08.854Z,5.18
2023-03-29T19:53:38.732Z,4.80
2023-03-29T19:56:07.699Z,4.95
2023-03-29T19:58:35.577Z,5.33
2023-03-29T20:01:03.030Z,5.80
2023-03-29T20:03:34.201Z,5.90
2023-03-29T20:06:02.002Z,5.55
2023-03-29T20:08:31.408Z,6.05
2023-03-29T20:11:10.140Z,5.63
2023-03-29T20:13:44.667Z,5.07
2023-03-29T20:16:13.348Z,5.63
2023-03-29T20:18:40.925Z,5.60
2023-03-29T20:21:08.782Z,5.10
2023-03-29T20:23:36.451Z,5.27
2023-03-29T20:26:03.980Z,5.28
2023-03-29T20:28:31.538Z,5.15
2023-03-29T20:31:03.487Z,5.40
2023-03-29T20:33:30.961Z,5.00
2023-03-29T20:35:59.710Z,4.90
2023-03-29T20:38:26.933Z,4.80
2023-03-29T20:40:55.276Z,4.90
2023-03-29T20:43:22.568Z,5.28
2023-03-29T20:45:53.418Z,4.43
2023-03-29T20:48:23.271Z,4.50
2023-03-29T20:50:51.482Z,4.82
2023-03-29T20:53:20.321Z,4.80
2023-03-29T20:55:47.984Z,5.25
2023-03-29T20:58:15.788Z,5.15
2023-03-29T21:00:43.660Z,5.07
2023-03-29T21:03:11.216Z,4.70
2023-03-29T21:05:39.116Z,4.40
2023-03-29T21:08:06.461Z,4.70
2023-03-29T21:10:33.723Z,4.80
2023-03-29T21:13:02.436Z,4.70
2023-03-29T21:15:30.947Z,4.70
2023-03-29T21:17:58.405Z,5.03
2023-03-29T21:20:25.782Z,4.60
2023-03-29T21:22:52.915Z,4.63
2023-03-29T21:25:20.303Z,4.67
2023-03-29T21:27:47.710Z,4.10
2023-03-29T21:30:14.946Z,4.53
2023-03-29T21:32:42.210Z,4.10
2023-03-29T21:35:09.852Z,4.40
2023-03-29T21:37:37.230Z,4.60
2023-03-29T21:40:10.353Z,4.50
2023-03-29T21:42:37.593Z,4.05
2023-03-29T21:45:05.276Z,3.97
2023-03-29T21:47:32.594Z,4.50
2023-03-29T21:49:59.834Z,4.93
2023-03-29T21:52:27.078Z,4.45
2023-03-29T21:54:59.766Z,4.22
2023-03-29T21:57:26.901Z,4.38
2023-03-29T21:59:56.487Z,4.55
2023-03-29T22:02:23.741Z,4.50
2023-03-29T22:04:50.924Z,4.20
2023-03-29T22:07:18.118Z,4.20
2023-03-29T22:09:46.521Z,4.30
2023-03-29T22:12:13.709Z,4.05
2023-03-29T22:14:40.906Z,4.40
2023-03-29T22:17:08.246Z,4.15
2023-03-29T22:19:39.719Z,4.00
2023-03-29T22:22:13.345Z,3.83
2023-03-29T22:24:41.378Z,4.38
2023-03-29T22:27:08.552Z,4.30
2023-03-29T22:29:35.852Z,3.58
2023-03-29T22:32:03.170Z,3.90
2023-03-29T22:34:30.473Z,4.03
2023-03-29T22:36:57.657Z,3.70
2023-03-29T22:39:24.768Z,4.23
2023-03-29T22:41:51.949Z,4.05
2023-03-29T22:44:19.127Z,4.00
2023-03-29T22:46:46.727Z,3.80
2023-03-29T22:49:13.941Z,3.80
2023-03-29T22:51:41.159Z,3.60
2023-03-29T22:54:08.377Z,3.65
2023-03-29T22:56:35.885Z,3.83
2023-03-29T22:59:03.078Z,3.33
2023-03-29T23:01:30.335Z,3.80
2023-03-29T23:03:57.546Z,3.97
2023-03-29T23:06:24.725Z,3.72
2023-03-29T23:08:51.886Z,3.88
2023-03-29T23:11:19.046Z,3.72
2023-03-29T23:13:48.708Z,3.67
2023-03-29T23:16:16.345Z,3.73
2023-03-29T23:18:43.679Z,4.07
2023-03-29T23:21:10.864Z,4.13
2023-03-29T23:23:38.363Z,3.78
2023-03-29T23:26:05.686Z,3.67
2023-03-29T23:28:34.670Z,3.80
2023-03-29T23:31:06.885Z,3.97
2023-03-29T23:33:35.463Z,3.78
2023-03-29T23:36:04.162Z,3.72
2023-03-29T23:38:31.917Z,3.80
2023-03-29T23:41:00.291Z,3.63
2023-03-29T23:43:31.727Z,3.80
2023-03-29T23:46:03.294Z,3.70
2023-03-29T23:48:31.568Z,3.90
2023-03-29T23:50:59.047Z,4.10
2023-03-29T23:53:28.467Z,3.50
2023-03-29T23:56:00.411Z,3.25
2023-03-29T23:58:33.710Z,3.42
